createdAt,value
2023-11-27T00:01:59.568Z,4.72
2023-11-27T00:04:26.545Z,4.57
2023-11-27T00:06:53.490Z,4.15
2023-11-27T00:09:21.012Z,3.85
2023-11-27T00:11:47.925Z,4.20
2023-11-27T00:14:14.697Z,4.30
2023-11-27T00:16:41.565Z,3.97
2023-11-27T00:19:08.898Z,4.20
2023-11-27T00:21:35.810Z,4.43
2023-11-27T00:24:05.278Z,3.80
2023-11-27T00:26:32.312Z,4.32
2023-11-27T00:28:59.372Z,4.22
2023-11-27T00:31:26.261Z,4.22
2023-11-27T00:33:53.198Z,4.38
2023-11-27T00:36:21.117Z,4.03
2023-11-27T00:38:47.949Z,3.45
2023-11-27T00:41:16.073Z,3.50
2023-11-27T00:43:43.432Z,4.05
2023-11-27T00:46:14.334Z,4.50
2023-11-27T00:48:44.091Z,4.28
2023-11-27T00:51:11.052Z,4.07
2023-11-27T00:53:37.971Z,3.80
2023-11-27T00:56:06.179Z,4.57
2023-11-27T00:58:33.106Z,3.83
2023-11-27T01:00:59.938Z,4.38
2023-11-27T01:03:27.402Z,4.10
2023-11-27T01:05:56.739Z,4.50
2023-11-27T01:08:25.554Z,4.13
2023-11-27T01:10:52.637Z,4.45
2023-11-27T01:13:20.645Z,4.10
2023-11-27T01:15:47.648Z,4.55
2023-11-27T01:18:14.522Z,4.53
2023-11-27T01:20:41.337Z,4.90
2023-11-27T01:23:08.092Z,4.60
2023-11-27T01:25:34.818Z,4.25
2023-11-27T01:28:01.562Z,4.38
2023-11-27T01:30:29.596Z,5.50
2023-11-27T01:32:56.515Z,5.75
2023-11-27T01:35:23.381Z,4.85
2023-11-27T01:37:50.122Z,5.55
2023-11-27T01:40:16.950Z,5.32
2023-11-27T01:42:44.278Z,5.00
2023-11-27T01:45:11.197Z,5.13
2023-11-27T01:47:38.138Z,4.63
2023-11-27T01:50:06.977Z,5.15
2023-11-27T01:52:34.421Z,6.13
2023-11-27T01:55:01.217Z,4.28
2023-11-27T01:57:28.078Z,6.45
2023-11-27T01:59:56.604Z,5.60
2023-11-27T02:02:24.724Z,5.00
2023-11-27T02:04:52.309Z,4.75
2023-11-27T02:07:19.751Z,6.15
2023-11-27T02:09:46.693Z,5.40
2023-11-27T02:12:13.508Z,5.55
2023-11-27T02:14:40.391Z,5.32
2023-11-27T02:17:07.291Z,4.85
2023-11-27T02:19:34.389Z,5.07
2023-11-27T02:22:02.097Z,5.50
2023-11-27T02:24:28.969Z,5.63
2023-11-27T02:26:55.682Z,5.75
2023-11-27T02:29:22.476Z,5.30
2023-11-27T02:31:49.713Z,5.00
2023-11-27T02:34:18.643Z,5.95
2023-11-27T02:36:45.563Z,5.55
2023-11-27T02:39:12.848Z,5.30
2023-11-27T02:41:39.673Z,5.43
2023-11-27T02:44:07.037Z,5.93
2023-11-27T02:46:34.088Z,5.72
2023-11-27T02:49:01.161Z,5.60
2023-11-27T02:51:28.005Z,6.55
2023-11-27T02:53:55.179Z,6.35
2023-11-27T02:56:22.016Z,6.38
2023-11-27T02:58:48.954Z,6.22
2023-11-27T03:01:17.066Z,6.93
2023-11-27T03:03:44.057Z,7.20
2023-11-27T03:06:12.111Z,5.78
2023-11-27T03:08:38.910Z,6.00
2023-11-27T03:11:05.915Z,5.80
2023-11-27T03:13:32.731Z,6.43
2023-11-27T03:15:59.546Z,6.50
2023-11-27T03:18:26.606Z,8.27
2023-11-27T03:20:53.730Z,6.57
2023-11-27T03:23:21.941Z,6.93
2023-11-27T03:25:49.924Z,6.68
2023-11-27T03:28:16.850Z,6.75
2023-11-27T03:30:44.465Z,5.15
2023-11-27T03:33:12.778Z,5.32
2023-11-27T03:35:39.555Z,5.05
2023-11-27T03:38:06.608Z,5.05
2023-11-27T03:40:33.416Z,5.07
2023-11-27T03:43:00.241Z,4.93
2023-11-27T03:45:27.132Z,4.10
2023-11-27T03:47:54.006Z,5.13
2023-11-27T03:50:20.817Z,4.88
2023-11-27T03:52:48.438Z,4.78
2023-11-27T03:55:15.366Z,4.65
2023-11-27T03:57:42.652Z,5.47
2023-11-27T04:00:11.964Z,4.55
2023-11-27T04:02:41.962Z,4.20
2023-11-27T04:05:09.164Z,3.88
2023-11-27T04:07:36.033Z,4.43
2023-11-27T04:10:03.047Z,3.90
2023-11-27T04:12:33.927Z,4.18
2023-11-27T04:15:01.142Z,4.00
2023-11-27T04:17:35.340Z,4.35
2023-11-27T04:20:06.594Z,4.32
2023-11-27T04:22:35.771Z,4.45
2023-11-27T04:25:03.013Z,4.13
2023-11-27T04:27:30.057Z,4.18
2023-11-27T04:29:57.261Z,4.57
2023-11-27T04:32:24.073Z,5.22
2023-11-27T04:34:50.869Z,4.97
2023-11-27T04:37:17.671Z,5.20
2023-11-27T04:39:44.450Z,5.00
2023-11-27T04:42:12.017Z,5.22
2023-11-27T04:44:40.302Z,5.78
2023-11-27T04:47:07.233Z,6.05
2023-11-27T04:49:34.050Z,5.75
2023-11-27T04:52:00.856Z,5.18
2023-11-27T04:54:27.706Z,4.40
2023-11-27T04:56:54.443Z,4.82
2023-11-27T04:59:21.213Z,6.93
2023-11-27T05:01:47.963Z,9.05
2023-11-27T05:04:18.809Z,6.75
2023-11-27T05:06:46.336Z,5.10
2023-11-27T05:09:14.211Z,5.70
2023-11-27T05:11:41.094Z,4.65
2023-11-27T05:14:07.872Z,5.03
2023-11-27T05:16:34.818Z,6.00
2023-11-27T05:19:01.632Z,6.47
2023-11-27T05:21:28.419Z,6.95
2023-11-27T05:23:55.131Z,5.97
2023-11-27T05:26:21.838Z,5.28
2023-11-27T05:28:48.602Z,4.72
2023-11-27T05:31:16.186Z,5.00
2023-11-27T05:33:43.433Z,5.18
2023-11-27T05:36:13.647Z,4.93
2023-11-27T05:38:40.433Z,4.40
2023-11-27T05:41:08.757Z,4.57
2023-11-27T05:43:36.225Z,4.03
2023-11-27T05:46:03.098Z,3.75
2023-11-27T05:48:30.298Z,4.00
2023-11-27T05:50:57.651Z,4.25
2023-11-27T05:53:32.813Z,4.18
2023-11-27T05:56:00.204Z,4.82
2023-11-27T05:58:27.057Z,4.40
2023-11-27T06:00:55.570Z,4.63
2023-11-27T06:03:22.652Z,5.05
2023-11-27T06:05:49.476Z,5.53
2023-11-27T06:08:16.382Z,4.85
2023-11-27T06:10:43.165Z,5.13
2023-11-27T06:13:12.348Z,5.95
2023-11-27T06:15:47.530Z,6.15
2023-11-27T06:18:15.280Z,6.45
2023-11-27T06:20:42.056Z,6.43
2023-11-27T06:23:08.779Z,5.97
2023-11-27T06:25:36.791Z,6.00
2023-11-27T06:28:03.975Z,6.30
2023-11-27T06:30:31.006Z,6.40
2023-11-27T06:32:57.929Z,6.80
2023-11-27T06:35:24.660Z,7.07
2023-11-27T06:37:51.665Z,6.25
2023-11-27T06:40:18.529Z,5.45
2023-11-27T06:42:46.530Z,5.68
2023-11-27T06:45:13.313Z,5.43
2023-11-27T06:47:40.058Z,5.68
2023-11-27T06:50:07.049Z,5.82
2023-11-27T06:52:33.811Z,6.80
2023-11-27T06:55:01.125Z,7.22
2023-11-27T06:57:28.076Z,7.10
2023-11-27T06:59:54.777Z,5.78
2023-11-27T07:02:21.645Z,7.25
2023-11-27T07:04:48.546Z,12.00
2023-11-27T07:07:15.299Z,9.20
2023-11-27T07:09:42.089Z,10.15
2023-11-27T07:12:09.116Z,8.80
2023-11-27T07:14:35.945Z,7.47
2023-11-27T07:17:04.427Z,6.72
2023-11-27T07:19:31.394Z,6.00
2023-11-27T07:21:59.043Z,4.88
2023-11-27T07:24:25.788Z,5.03
2023-11-27T07:26:52.576Z,4.22
2023-11-27T07:29:19.296Z,4.75
2023-11-27T07:31:46.203Z,4.60
2023-11-27T07:34:13.007Z,4.80
2023-11-27T07:36:39.764Z,4.55
2023-11-27T07:39:11.684Z,5.40
2023-11-27T07:41:38.500Z,4.15
2023-11-27T07:44:13.425Z,4.38
2023-11-27T07:46:40.380Z,5.13
2023-11-27T07:49:07.769Z,5.03
2023-11-27T07:51:34.674Z,4.75
2023-11-27T07:54:02.513Z,5.50
2023-11-27T07:56:30.702Z,5.72
2023-11-27T07:58:57.873Z,5.72
2023-11-27T08:01:26.059Z,5.53
2023-11-27T08:03:52.996Z,5.60
2023-11-27T08:06:20.602Z,4.63
2023-11-27T08:08:48.420Z,4.38
2023-11-27T08:11:15.202Z,3.72
2023-11-27T08:13:45.319Z,4.45
2023-11-27T08:16:12.582Z,3.90
2023-11-27T08:18:41.825Z,4.60
2023-11-27T08:21:11.774Z,4.60
2023-11-27T08:23:38.824Z,4.63
2023-11-27T08:26:06.245Z,4.15
2023-11-27T08:28:33.627Z,4.13
2023-11-27T08:31:00.627Z,4.15
2023-11-27T08:33:27.419Z,3.85
2023-11-27T08:35:54.365Z,3.65
2023-11-27T08:38:21.115Z,4.50
2023-11-27T08:40:48.012Z,3.75
2023-11-27T08:43:14.765Z,3.28
2023-11-27T08:45:41.566Z,3.85
2023-11-27T08:48:09.813Z,3.72
2023-11-27T08:50:37.930Z,3.60
2023-11-27T08:53:07.307Z,3.40
2023-11-27T08:55:35.200Z,4.13
2023-11-27T08:58:05.635Z,3.78
2023-11-27T09:00:33.410Z,3.33
2023-11-27T09:03:01.709Z,3.92
2023-11-27T09:05:32.738Z,4.32
2023-11-27T09:08:02.100Z,4.68
2023-11-27T09:10:29.209Z,5.35
2023-11-27T09:12:57.000Z,5.90
2023-11-27T09:15:24.044Z,6.25
2023-11-27T09:17:50.954Z,6.75
2023-11-27T09:20:17.836Z,5.40
2023-11-27T09:22:44.635Z,5.15
2023-11-27T09:25:14.246Z,4.88
2023-11-27T09:27:41.479Z,5.43
2023-11-27T09:30:09.423Z,4.93
2023-11-27T09:32:36.837Z,5.22
2023-11-27T09:35:11.826Z,4.80
2023-11-27T09:37:40.106Z,4.38
2023-11-27T09:40:09.516Z,4.60
2023-11-27T09:42:46.581Z,4.38
2023-11-27T09:45:17.907Z,4.47
2023-11-27T09:47:49.481Z,3.47
2023-11-27T09:50:17.944Z,3.45
2023-11-27T09:52:53.739Z,3.85
2023-11-27T09:55:23.928Z,3.85
2023-11-27T09:57:52.342Z,3.88
2023-11-27T10:00:20.257Z,4.25
2023-11-27T10:02:48.753Z,4.60
2023-11-27T10:05:19.744Z,3.65
2023-11-27T10:07:47.840Z,4.00
2023-11-27T10:10:27.634Z,3.88
2023-11-27T10:13:09.240Z,3.65
2023-11-27T10:18:09.796Z,3.78
2023-11-27T10:20:36.819Z,3.65
2023-11-27T10:23:03.832Z,3.35
2023-11-27T10:25:31.051Z,3.78
2023-11-27T10:27:59.018Z,3.72
2023-11-27T10:30:27.094Z,3.22
2023-11-27T10:32:53.973Z,3.60
2023-11-27T10:35:25.707Z,3.55
2023-11-27T10:37:55.868Z,5.10
2023-11-27T10:40:27.248Z,5.20
2023-11-27T10:42:59.895Z,4.30
2023-11-27T10:45:26.868Z,3.70
2023-11-27T10:47:54.421Z,3.58
2023-11-27T10:50:23.664Z,3.75
2023-11-27T10:52:51.235Z,3.70
2023-11-27T10:55:19.405Z,3.78
2023-11-27T10:57:48.522Z,4.00
2023-11-27T11:00:40.838Z,3.65
2023-11-27T11:03:15.598Z,3.47
2023-11-27T11:05:47.126Z,3.85
2023-11-27T11:08:14.340Z,3.65
2023-11-27T11:10:42.932Z,3.42
2023-11-27T11:13:14.993Z,3.88
2023-11-27T11:15:53.152Z,2.90
2023-11-27T11:18:53.679Z,3.55
2023-11-27T11:21:40.762Z,4.65
2023-11-27T11:24:16.366Z,4.80
2023-11-27T11:27:08.141Z,3.83
2023-11-27T11:29:45.133Z,3.85
2023-11-27T11:32:18.121Z,2.88
2023-11-27T11:37:16.562Z,2.33
2023-11-27T11:53:07.504Z,2.00
2023-11-27T11:55:36.436Z,2.55
2023-11-27T11:58:04.746Z,2.80
2023-11-27T12:00:43.485Z,2.00
2023-11-27T12:03:16.892Z,2.35
2023-11-27T12:05:50.616Z,1.95
2023-11-27T12:08:25.199Z,1.65
2023-11-27T12:10:55.819Z,0.90
2023-11-27T12:13:35.082Z,1.27
2023-11-27T12:16:12.515Z,1.60
2023-11-27T12:18:44.268Z,1.48
2023-11-27T12:21:12.568Z,1.65
2023-11-27T12:23:39.929Z,1.48
2023-11-27T12:26:08.302Z,2.33
2023-11-27T12:28:36.111Z,1.70
2023-11-27T12:31:06.521Z,1.77
2023-11-27T12:33:34.388Z,1.90
2023-11-27T12:36:06.190Z,1.58
2023-11-27T12:38:35.802Z,1.63
2023-11-27T12:41:13.364Z,2.00
2023-11-27T12:43:40.777Z,2.15
2023-11-27T12:46:14.500Z,1.70
2023-11-27T12:48:45.518Z,2.70
2023-11-27T12:51:19.690Z,3.17
2023-11-27T12:53:51.690Z,3.65
2023-11-27T12:56:25.438Z,3.03
2023-11-27T12:58:55.627Z,3.17
2023-11-27T13:01:27.151Z,1.90
2023-11-27T13:03:54.617Z,1.90
2023-11-27T13:06:28.423Z,1.80
2023-11-27T13:08:55.428Z,1.48
2023-11-27T13:11:32.955Z,1.83
2023-11-27T13:14:08.871Z,1.83
2023-11-27T13:16:36.494Z,2.22
2023-11-27T13:19:07.773Z,2.50
2023-11-27T13:21:34.618Z,3.20
2023-11-27T13:24:03.867Z,2.60
2023-11-27T13:26:36.891Z,3.42
2023-11-27T13:29:04.476Z,4.85
2023-11-27T13:31:34.756Z,4.57
2023-11-27T13:34:08.651Z,3.17
2023-11-27T13:36:35.800Z,6.13
2023-11-27T13:39:08.888Z,10.00
2023-11-27T13:44:08.906Z,3.75
2023-11-27T13:46:35.915Z,3.90
2023-11-27T13:49:08.122Z,5.70
2023-11-27T13:51:34.930Z,4.97
2023-11-27T13:54:01.673Z,4.28
2023-11-27T13:56:31.531Z,3.05
2023-11-27T13:58:58.984Z,2.63
2023-11-27T14:01:25.908Z,2.70
2023-11-27T14:03:53.247Z,2.88
2023-11-27T14:06:20.496Z,2.80
2023-11-27T14:08:55.560Z,2.47
2023-11-27T14:11:34.009Z,3.17
2023-11-27T14:14:07.285Z,2.67
2023-11-27T14:16:35.168Z,2.50
2023-11-27T14:19:14.730Z,2.97
2023-11-27T14:21:49.100Z,4.03
2023-11-27T14:24:16.616Z,3.40
2023-11-27T14:26:52.228Z,3.97
2023-11-27T14:29:20.065Z,3.33
2023-11-27T14:31:47.869Z,3.53
2023-11-27T14:34:14.648Z,3.70
2023-11-27T14:36:41.925Z,4.35
2023-11-27T14:39:17.174Z,5.93
2023-11-27T14:41:50.375Z,6.15
2023-11-27T14:44:19.152Z,5.35
2023-11-27T14:46:52.083Z,4.20
2023-11-27T14:49:19.111Z,3.50
2023-11-27T14:51:46.032Z,3.72
2023-11-27T14:54:12.833Z,3.55
2023-11-27T14:56:41.152Z,3.88
2023-11-27T14:59:10.928Z,3.40
2023-11-27T15:01:43.892Z,3.92
2023-11-27T15:06:42.284Z,6.10
2023-11-27T15:09:21.459Z,4.88
2023-11-27T15:11:54.781Z,7.72
2023-11-27T15:14:23.095Z,7.60
2023-11-27T15:16:51.617Z,7.78
2023-11-27T15:19:21.975Z,8.00
2023-11-27T15:21:48.949Z,7.15
2023-11-27T15:24:18.802Z,8.18
2023-11-27T15:26:45.636Z,9.35
2023-11-27T15:29:17.242Z,9.25
2023-11-27T15:31:44.229Z,7.15
2023-11-27T15:34:11.103Z,7.57
2023-11-27T15:36:38.816Z,7.28
2023-11-27T15:39:23.159Z,6.63
2023-11-27T15:41:51.426Z,6.50
2023-11-27T15:44:19.144Z,6.07
2023-11-27T15:46:51.253Z,5.65
2023-11-27T15:49:20.638Z,5.38
2023-11-27T15:51:47.483Z,6.75
2023-11-27T15:54:14.209Z,6.75
2023-11-27T15:56:41.613Z,6.15
2023-11-27T15:59:10.276Z,6.68
2023-11-27T16:01:37.363Z,5.72
2023-11-27T16:04:05.561Z,5.53
2023-11-27T16:06:39.687Z,6.05
2023-11-27T16:09:06.852Z,8.20
2023-11-27T16:11:36.376Z,9.00
2023-11-27T16:14:09.087Z,9.20
2023-11-27T16:16:43.581Z,11.00
2023-11-27T16:19:13.214Z,9.40
2023-11-27T16:21:40.041Z,8.95
2023-11-27T16:24:07.431Z,8.27
2023-11-27T16:26:34.221Z,7.65
2023-11-27T16:29:01.548Z,6.45
2023-11-27T16:31:28.410Z,6.63
2023-11-27T16:33:55.612Z,7.63
2023-11-27T16:36:22.434Z,8.50
2023-11-27T16:38:49.162Z,6.93
2023-11-27T16:41:21.178Z,7.45
2023-11-27T16:43:48.903Z,9.15
2023-11-27T16:46:16.130Z,11.13
2023-11-27T16:48:43.194Z,13.00
2023-11-27T16:51:10.339Z,12.07
2023-11-27T16:53:38.229Z,8.48
2023-11-27T16:56:07.767Z,8.45
2023-11-27T16:58:39.408Z,7.93
2023-11-27T17:01:07.838Z,6.00
2023-11-27T17:03:36.056Z,5.53
2023-11-27T17:06:03.405Z,5.63
2023-11-27T17:08:34.252Z,6.57
2023-11-27T17:11:01.580Z,7.15
2023-11-27T17:13:28.561Z,6.53
2023-11-27T17:15:55.462Z,6.25
2023-11-27T17:18:23.706Z,7.75
2023-11-27T17:20:51.126Z,7.90
2023-11-27T17:23:18.062Z,7.88
2023-11-27T17:25:47.288Z,13.10
2023-11-27T17:28:14.559Z,11.93
2023-11-27T17:30:45.382Z,13.27
2023-11-27T17:33:13.513Z,11.52
2023-11-27T17:35:43.990Z,8.43
2023-11-27T17:38:10.807Z,7.78
2023-11-27T17:40:37.823Z,8.45
2023-11-27T17:43:04.774Z,11.75
2023-11-27T17:45:31.507Z,11.80
2023-11-27T17:47:58.342Z,12.75
2023-11-27T17:50:25.226Z,13.27
2023-11-27T17:52:53.996Z,11.38
2023-11-27T17:55:22.062Z,11.63
2023-11-27T17:57:50.870Z,12.38
2023-11-27T18:00:20.139Z,13.00
2023-11-27T18:02:54.113Z,10.70
2023-11-27T18:05:24.718Z,11.27
2023-11-27T18:07:52.611Z,11.38
2023-11-27T18:10:20.641Z,10.00
2023-11-27T18:12:50.488Z,10.45
2023-11-27T18:15:19.896Z,10.52
2023-11-27T18:17:48.075Z,13.20
2023-11-27T18:20:15.907Z,11.82
2023-11-27T18:22:45.125Z,14.23
2023-11-27T18:25:15.267Z,14.93
2023-11-27T18:27:42.610Z,13.85
2023-11-27T18:30:12.080Z,13.18
2023-11-27T18:32:40.104Z,14.45
2023-11-27T18:35:07.548Z,16.30
2023-11-27T18:44:57.763Z,10.27
2023-11-27T18:47:25.305Z,12.95
2023-11-27T18:49:52.257Z,11.95
2023-11-27T18:52:19.098Z,11.85
2023-11-27T18:54:45.911Z,14.85
2023-11-27T18:57:12.778Z,11.30
2023-11-27T18:59:39.925Z,12.65
2023-11-27T19:02:07.878Z,16.08
2023-11-27T19:04:34.955Z,14.20
2023-11-27T19:07:02.224Z,14.15
2023-11-27T19:09:30.324Z,11.32
2023-11-27T19:11:57.984Z,14.43
2023-11-27T19:14:25.218Z,15.80
2023-11-27T19:16:53.674Z,11.55
2023-11-27T19:19:20.517Z,15.57
2023-11-27T19:21:47.394Z,17.27
2023-11-27T19:24:14.162Z,15.25
2023-11-27T19:26:40.887Z,14.48
2023-11-27T19:29:07.745Z,13.02
2023-11-27T19:31:34.587Z,11.07
2023-11-27T19:34:02.276Z,12.23
2023-11-27T19:36:29.095Z,10.38
2023-11-27T19:38:56.093Z,10.25
2023-11-27T19:41:23.642Z,9.98
2023-11-27T19:43:50.614Z,11.02
2023-11-27T19:46:18.905Z,9.55
2023-11-27T19:48:46.128Z,8.52
2023-11-27T19:51:13.386Z,8.57
2023-11-27T19:53:41.107Z,8.10
2023-11-27T19:56:08.409Z,9.05
2023-11-27T19:58:35.220Z,7.80
2023-11-27T20:01:03.980Z,8.73
2023-11-27T20:03:31.114Z,7.43
2023-11-27T20:05:58.852Z,7.20
2023-11-27T20:08:26.066Z,8.00
2023-11-27T20:10:53.029Z,6.68
2023-11-27T20:13:20.289Z,6.95
2023-11-27T20:15:47.078Z,6.15
2023-11-27T20:22:08.994Z,5.05
2023-11-27T22:13:09.475Z,1.92
2023-11-27T22:15:36.215Z,2.42
2023-11-27T22:18:03.695Z,2.25
2023-11-27T22:20:30.682Z,3.63
2023-11-27T22:22:57.510Z,3.40
2023-11-27T22:25:24.385Z,4.88
2023-11-27T22:27:51.237Z,2.85
2023-11-27T22:30:19.927Z,3.20
2023-11-27T22:32:46.817Z,2.60
2023-11-27T22:35:13.578Z,1.58
2023-11-27T22:37:40.453Z,2.08
2023-11-27T22:40:08.148Z,1.40
2023-11-27T22:42:35.783Z,1.50
2023-11-27T22:45:02.761Z,2.05
2023-11-27T22:47:30.250Z,2.42
2023-11-27T22:49:57.151Z,2.22
2023-11-27T22:52:24.022Z,2.53
2023-11-27T22:54:50.778Z,2.20
2023-11-27T22:57:17.541Z,1.70
2023-11-27T22:59:44.412Z,1.98
2023-11-27T23:02:12.906Z,2.17
2023-11-27T23:04:41.424Z,2.08
2023-11-27T23:07:08.524Z,1.80
2023-11-27T23:09:35.365Z,2.08
2023-11-27T23:12:02.120Z,2.63
2023-11-27T23:14:29.924Z,2.80
2023-11-27T23:16:57.754Z,2.53
2023-11-27T23:19:24.614Z,3.33
2023-11-27T23:21:52.118Z,3.15
2023-11-27T23:24:26.307Z,2.53
2023-11-27T23:26:54.518Z,2.85
2023-11-27T23:29:22.707Z,2.55
2023-11-27T23:31:51.655Z,2.53
2023-11-27T23:34:21.538Z,2.70
2023-11-27T23:36:48.416Z,3.17
2023-11-27T23:39:15.177Z,2.05
2023-11-27T23:41:41.950Z,1.90
2023-11-27T23:44:08.832Z,2.08
2023-11-27T23:46:35.634Z,1.60
2023-11-27T23:49:02.471Z,1.88
2023-11-27T23:51:29.433Z,1.63
2023-11-27T23:53:56.628Z,1.45
2023-11-27T23:56:23.465Z,1.50
2023-11-27T23:58:50.501Z,1.40
